createdAt,value
2023-04-13T00:07:03.502Z,39.28
2023-04-13T00:09:34.848Z,25.35
2023-04-13T00:12:04.346Z,30.45
2023-04-13T00:14:40.318Z,34.05
2023-04-13T00:17:13.002Z,33.35
2023-04-13T00:19:43.134Z,37.58
2023-04-13T00:22:13.120Z,34.72
2023-04-13T00:24:48.051Z,35.75
2023-04-13T00:27:17.042Z,36.95
2023-04-13T00:29:46.481Z,36.33
2023-04-13T00:32:15.768Z,36.83
2023-04-13T00:34:48.196Z,32.17
2023-04-13T00:37:18.757Z,32.97
2023-04-13T00:39:53.651Z,28.30
2023-04-13T00:42:24.543Z,29.15
2023-04-13T00:44:54.452Z,28.23
2023-04-13T00:47:27.818Z,32.20
2023-04-13T00:49:58.602Z,34.70
2023-04-13T00:52:45.490Z,33.70
2023-04-13T00:55:21.631Z,30.42
2023-04-13T00:57:53.210Z,31.40
2023-04-13T01:00:32.902Z,35.28
2023-04-13T01:03:02.672Z,37.83
2023-04-13T01:05:34.137Z,40.55
2023-04-13T01:08:12.023Z,36.67
2023-04-13T01:10:45.928Z,32.65
2023-04-13T01:13:24.696Z,29.85
2023-04-13T01:16:02.556Z,37.20
2023-04-13T01:18:38.247Z,33.72
2023-04-13T01:21:10.111Z,27.15
2023-04-13T01:23:46.194Z,34.22
2023-04-13T01:26:17.287Z,28.23
2023-04-13T01:28:49.479Z,29.52
2023-04-13T01:31:19.661Z,29.35
2023-04-13T01:33:54.093Z,35.00
2023-04-13T01:36:25.565Z,30.38
2023-04-13T01:39:05.797Z,34.50
2023-04-13T01:41:36.650Z,30.77
2023-04-13T01:44:08.105Z,38.40
2023-04-13T01:46:38.100Z,34.10
2023-04-13T01:49:13.751Z,36.95
2023-04-13T01:52:06.388Z,41.55
2023-04-13T01:54:39.788Z,36.30
2023-04-13T01:57:10.282Z,30.40
2023-04-13T01:59:41.396Z,31.33
2023-04-13T02:02:18.209Z,35.50
2023-04-13T02:04:47.505Z,36.05
2023-04-13T02:07:19.027Z,33.00
2023-04-13T02:09:52.020Z,33.97
2023-04-13T02:12:21.172Z,34.22
2023-04-13T02:14:52.260Z,40.40
2023-04-13T02:17:21.461Z,36.10
2023-04-13T02:19:50.659Z,31.98
2023-04-13T02:22:19.920Z,33.97
2023-04-13T02:24:52.454Z,30.23
2023-04-13T02:27:23.079Z,36.40
2023-04-13T02:29:53.738Z,33.05
2023-04-13T02:32:22.874Z,33.33
2023-04-13T02:34:53.423Z,38.00
2023-04-13T02:37:23.794Z,41.05
2023-04-13T02:39:53.589Z,36.50
2023-04-13T02:42:24.861Z,37.13
2023-04-13T02:44:56.455Z,41.97
2023-04-13T02:47:26.239Z,38.30
2023-04-13T02:49:56.629Z,33.35
2023-04-13T02:52:31.190Z,42.83
2023-04-13T02:55:05.209Z,33.00
2023-04-13T02:57:46.672Z,44.05
2023-04-13T03:00:18.336Z,38.63
2023-04-13T03:02:56.974Z,39.10
2023-04-13T03:05:31.376Z,34.78
2023-04-13T03:08:01.258Z,37.65
2023-04-13T03:10:38.835Z,38.88
2023-04-13T03:13:09.114Z,35.75
2023-04-13T03:15:45.379Z,33.05
2023-04-13T03:18:19.142Z,39.20
2023-04-13T03:20:48.616Z,46.83
2023-04-13T03:23:19.466Z,48.70
2023-04-13T03:25:56.523Z,43.88
2023-04-13T03:28:26.174Z,29.58
2023-04-13T03:31:01.495Z,29.77
2023-04-13T03:33:33.782Z,33.42
2023-04-13T03:36:05.777Z,22.02
2023-04-13T03:38:40.330Z,32.83
2023-04-13T03:41:10.621Z,43.03
2023-04-13T03:43:40.264Z,40.53
2023-04-13T03:46:14.882Z,28.40
2023-04-13T03:48:44.148Z,30.23
2023-04-13T03:51:17.465Z,27.73
2023-04-13T03:53:50.278Z,28.05
2023-04-13T03:56:24.463Z,28.15
2023-04-13T03:58:54.345Z,21.00
2023-04-13T04:01:28.879Z,23.65
2023-04-13T04:03:58.750Z,26.80
2023-04-13T04:06:31.120Z,25.05
2023-04-13T04:09:12.395Z,26.27
2023-04-13T04:11:49.381Z,16.40
2023-04-13T04:14:26.478Z,33.90
2023-04-13T04:17:03.841Z,25.13
2023-04-13T04:19:32.925Z,27.48
2023-04-13T04:22:04.140Z,25.38
2023-04-13T04:24:37.998Z,38.35
2023-04-13T04:27:07.754Z,38.65
2023-04-13T04:29:37.114Z,22.23
2023-04-13T04:32:37.235Z,23.15
2023-04-13T04:35:14.359Z,18.60
2023-04-13T04:37:51.148Z,27.52
2023-04-13T04:40:22.800Z,20.80
2023-04-13T04:42:53.925Z,21.70
2023-04-13T04:45:36.380Z,23.85
2023-04-13T04:48:08.453Z,30.37
2023-04-13T04:50:38.617Z,29.33
2023-04-13T04:53:13.518Z,31.67
2023-04-13T04:55:43.328Z,28.08
2023-04-13T04:58:20.693Z,30.70
2023-04-13T05:00:57.167Z,33.30
2023-04-13T05:03:27.693Z,27.70
2023-04-13T05:06:08.017Z,29.40
2023-04-13T05:08:37.568Z,40.25
2023-04-13T05:11:07.614Z,28.30
2023-04-13T05:13:37.667Z,29.98
2023-04-13T05:16:19.992Z,23.58
2023-04-13T05:18:50.854Z,30.98
2023-04-13T05:21:39.686Z,27.98
2023-04-13T05:24:11.485Z,27.77
2023-04-13T05:26:43.441Z,26.80
2023-04-13T05:29:15.608Z,35.92
2023-04-13T05:31:47.624Z,25.42
2023-04-13T05:34:18.765Z,34.97
2023-04-13T05:37:06.765Z,28.92
2023-04-13T05:39:36.372Z,24.23
2023-04-13T05:42:05.460Z,36.47
2023-04-13T05:44:39.470Z,34.80
2023-04-13T05:47:08.505Z,27.67
2023-04-13T05:49:39.557Z,29.45
2023-04-13T05:52:10.488Z,18.93
2023-04-13T05:54:45.672Z,31.17
2023-04-13T05:57:15.053Z,24.95
2023-04-13T05:59:48.734Z,27.35
2023-04-13T06:02:25.873Z,31.00
2023-04-13T06:04:56.626Z,33.10
2023-04-13T06:07:26.121Z,33.30
2023-04-13T06:09:55.092Z,32.50
2023-04-13T06:12:24.257Z,34.03
2023-04-13T06:14:54.731Z,27.60
2023-04-13T06:17:24.407Z,28.58
2023-04-13T06:19:54.394Z,24.02
2023-04-13T06:22:24.968Z,24.88
2023-04-13T06:24:54.141Z,25.20
2023-04-13T06:27:24.276Z,27.48
2023-04-13T06:29:53.618Z,24.33
2023-04-13T06:32:22.875Z,28.85
2023-04-13T06:34:52.631Z,26.30
2023-04-13T06:37:22.562Z,29.33
2023-04-13T06:39:55.645Z,30.13
2023-04-13T06:42:25.157Z,27.98
2023-04-13T06:45:14.464Z,27.80
2023-04-13T06:47:46.469Z,26.70
2023-04-13T06:50:17.435Z,21.90
2023-04-13T06:52:48.239Z,23.10
2023-04-13T06:55:19.889Z,27.23
2023-04-13T06:57:49.863Z,26.20
2023-04-13T07:00:29.464Z,25.83
2023-04-13T07:03:00.188Z,21.55
2023-04-13T07:05:30.094Z,33.20
2023-04-13T07:08:06.777Z,28.55
2023-04-13T07:10:40.858Z,25.67
2023-04-13T07:13:19.292Z,26.60
2023-04-13T07:15:49.094Z,25.10
2023-04-13T07:18:19.040Z,23.98
2023-04-13T07:23:22.003Z,20.13
2023-04-13T07:25:53.445Z,19.58
2023-04-13T07:28:27.384Z,21.90
2023-04-13T07:30:59.894Z,18.85
2023-04-13T07:33:29.203Z,19.80
2023-04-13T07:35:58.407Z,18.70
2023-04-13T07:38:31.839Z,22.77
2023-04-13T07:41:03.626Z,24.63
2023-04-13T07:43:37.294Z,25.55
2023-04-13T07:46:11.877Z,28.10
2023-04-13T07:48:58.479Z,28.40
2023-04-13T07:51:32.359Z,27.75
2023-04-13T07:54:01.969Z,24.83
2023-04-13T07:56:36.146Z,20.95
2023-04-13T07:59:09.709Z,18.33
2023-04-13T08:01:41.245Z,27.02
2023-04-13T08:04:11.170Z,28.80
2023-04-13T08:06:42.185Z,17.58
2023-04-13T08:09:11.425Z,18.98
2023-04-13T08:11:42.078Z,28.15
2023-04-13T08:14:12.058Z,30.33
2023-04-13T08:16:44.026Z,18.33
2023-04-13T08:19:13.518Z,28.77
2023-04-13T08:21:49.888Z,25.38
2023-04-13T08:24:20.843Z,30.13
2023-04-13T08:26:52.372Z,27.48
2023-04-13T08:29:25.452Z,31.70
2023-04-13T08:31:56.803Z,29.33
2023-04-13T08:34:27.540Z,34.33
2023-04-13T08:36:57.594Z,28.85
2023-04-13T08:39:30.086Z,28.65
2023-04-13T08:42:01.232Z,32.17
2023-04-13T08:44:35.065Z,30.23
2023-04-13T08:47:05.625Z,33.05
2023-04-13T08:49:37.776Z,35.22
2023-04-13T08:52:27.701Z,32.42
2023-04-13T08:54:58.611Z,30.95
2023-04-13T08:57:33.827Z,24.65
2023-04-13T09:00:11.626Z,22.50
2023-04-13T09:02:56.108Z,25.20
2023-04-13T09:05:34.180Z,25.53
2023-04-13T09:08:08.562Z,24.65
2023-04-13T09:10:42.247Z,25.02
2023-04-13T09:13:13.397Z,20.95
2023-04-13T09:15:47.446Z,22.42
2023-04-13T09:18:51.144Z,13.95
2023-04-13T09:21:21.005Z,24.20
2023-04-13T09:23:56.792Z,25.45
2023-04-13T09:26:26.241Z,20.75
2023-04-13T09:28:59.932Z,32.58
2023-04-13T09:31:30.366Z,20.27
2023-04-13T09:33:59.730Z,24.52
2023-04-13T09:36:30.136Z,12.65
2023-04-13T09:38:59.519Z,14.15
2023-04-13T09:41:32.920Z,18.00
2023-04-13T09:44:04.309Z,22.45
2023-04-13T09:46:34.163Z,22.50
2023-04-13T09:49:05.458Z,22.98
2023-04-13T09:51:37.952Z,26.75
2023-04-13T09:54:08.459Z,28.20
2023-04-13T09:56:48.974Z,24.65
2023-04-13T09:59:22.104Z,23.05
2023-04-13T10:01:51.222Z,18.42
2023-04-13T10:04:22.685Z,16.27
2023-04-13T10:06:52.603Z,22.05
2023-04-13T10:09:21.941Z,22.85
2023-04-13T10:11:52.530Z,18.85
2023-04-13T10:14:30.017Z,16.70
2023-04-13T10:17:13.165Z,26.58
2023-04-13T10:19:44.272Z,22.70
2023-04-13T10:22:15.312Z,22.48
2023-04-13T10:24:45.256Z,16.15
2023-04-13T10:27:17.882Z,15.90
2023-04-13T10:29:50.195Z,18.45
2023-04-13T10:32:23.610Z,24.50
2023-04-13T10:34:53.372Z,25.25
2023-04-13T10:37:24.428Z,26.35
2023-04-13T10:40:05.684Z,30.80
2023-04-13T10:42:51.900Z,26.10
2023-04-13T10:45:26.245Z,27.95
2023-04-13T10:47:58.561Z,97.47
2023-04-13T10:50:28.388Z,63.45
2023-04-13T10:53:02.013Z,23.17
2023-04-13T10:55:31.187Z,22.20
2023-04-13T10:58:00.646Z,18.55
2023-04-13T11:00:45.693Z,19.60
2023-04-13T11:03:17.232Z,23.60
2023-04-13T11:05:47.546Z,22.37
2023-04-13T11:08:21.766Z,15.50
2023-04-13T11:10:55.878Z,16.92
2023-04-13T11:13:27.447Z,24.80
2023-04-13T11:16:04.129Z,25.02
2023-04-13T11:18:33.673Z,23.10
2023-04-13T11:21:05.287Z,21.88
2023-04-13T11:23:36.192Z,20.40
2023-04-13T11:26:05.565Z,24.33
2023-04-13T11:28:43.669Z,19.65
2023-04-13T11:31:14.584Z,18.33
2023-04-13T11:33:44.599Z,15.32
2023-04-13T11:36:14.260Z,16.27
2023-04-13T11:38:43.637Z,24.98
2023-04-13T11:41:17.143Z,21.90
2023-04-13T11:43:52.381Z,24.58
2023-04-13T11:46:25.582Z,23.70
2023-04-13T11:48:55.704Z,22.75
2023-04-13T11:51:26.878Z,19.13
2023-04-13T11:53:56.276Z,17.23
2023-04-13T11:56:26.160Z,16.20
2023-04-13T11:58:55.261Z,24.35
2023-04-13T12:01:28.375Z,16.58
2023-04-13T12:06:44.259Z,20.60
2023-04-13T12:09:17.490Z,22.85
2023-04-13T12:12:12.054Z,17.40
2023-04-13T12:19:51.827Z,19.15
2023-04-13T12:22:23.841Z,19.30
2023-04-13T12:24:56.718Z,17.42
2023-04-13T12:27:27.548Z,25.73
2023-04-13T12:30:04.451Z,22.88
2023-04-13T12:32:41.158Z,22.20
2023-04-13T12:35:12.752Z,24.75
2023-04-13T12:37:42.822Z,24.23
2023-04-13T12:40:12.741Z,20.15
2023-04-13T12:42:42.125Z,19.95
2023-04-13T12:45:11.738Z,13.40
2023-04-13T12:47:42.704Z,22.90
2023-04-13T12:50:12.697Z,21.33
2023-04-13T12:52:44.314Z,16.33
2023-04-13T12:55:13.450Z,22.67
2023-04-13T12:57:42.398Z,28.73
2023-04-13T13:00:12.626Z,26.73
2023-04-13T13:02:44.573Z,29.90
2023-04-13T13:05:15.432Z,25.02
2023-04-13T13:07:44.381Z,30.15
2023-04-13T13:10:28.970Z,30.42
2023-04-13T13:13:00.604Z,25.98
2023-04-13T13:15:30.379Z,21.33
2023-04-13T13:18:02.946Z,25.30
2023-04-13T13:20:32.192Z,17.88
2023-04-13T13:23:01.137Z,25.38
2023-04-13T13:25:30.250Z,22.02
2023-04-13T13:28:13.434Z,21.75
2023-04-13T13:30:43.490Z,24.27
2023-04-13T13:33:15.329Z,22.13
2023-04-13T13:35:44.252Z,19.85
2023-04-13T13:38:14.070Z,24.42
2023-04-13T13:40:42.979Z,22.15
2023-04-13T13:43:13.811Z,25.95
2023-04-13T13:45:43.757Z,21.05
2023-04-13T13:48:14.794Z,19.92
2023-04-13T13:50:56.160Z,26.15
2023-04-13T13:53:27.894Z,13.00
2023-04-13T13:55:58.232Z,23.63
2023-04-13T13:58:27.332Z,17.90
2023-04-13T14:00:59.042Z,13.27
2023-04-13T14:03:53.261Z,14.30
2023-04-13T14:06:44.649Z,14.63
2023-04-13T14:09:15.813Z,8.95
2023-04-13T14:11:50.663Z,8.57
2023-04-13T14:14:22.402Z,20.58
2023-04-13T14:16:51.720Z,15.48
2023-04-13T14:19:22.161Z,17.50
2023-04-13T14:22:00.796Z,25.52
2023-04-13T14:24:30.048Z,20.80
2023-04-13T14:26:59.382Z,24.48
2023-04-13T14:29:29.794Z,16.08
2023-04-13T14:31:59.821Z,18.15
2023-04-13T14:34:29.472Z,17.10
2023-04-13T14:37:00.853Z,16.58
2023-04-13T14:39:31.047Z,13.85
2023-04-13T14:42:00.552Z,17.38
2023-04-13T14:44:31.220Z,15.13
2023-04-13T14:47:02.106Z,19.65
2023-04-13T14:49:31.904Z,15.13
2023-04-13T14:52:02.461Z,20.48
2023-04-13T14:54:33.232Z,20.63
2023-04-13T14:57:04.735Z,19.35
2023-04-13T14:59:33.980Z,19.15
2023-04-13T15:02:03.396Z,16.60
2023-04-13T15:04:35.113Z,14.65
2023-04-13T15:07:05.866Z,16.98
2023-04-13T15:09:35.292Z,25.67
2023-04-13T15:12:04.918Z,16.13
2023-04-13T15:14:34.254Z,20.48
2023-04-13T15:17:04.452Z,14.93
2023-04-13T15:19:36.707Z,22.83
2023-04-13T15:22:07.185Z,16.50
2023-04-13T15:24:36.781Z,20.98
2023-04-13T15:27:06.156Z,25.40
2023-04-13T15:29:35.288Z,9.52
2023-04-13T15:32:04.844Z,13.98
2023-04-13T15:34:34.352Z,14.02
2023-04-13T15:37:03.311Z,13.52
2023-04-13T15:39:33.856Z,12.27
2023-04-13T15:42:02.814Z,12.80
2023-04-13T15:44:31.973Z,15.73
2023-04-13T15:47:02.957Z,16.70
2023-04-13T15:49:33.607Z,18.33
2023-04-13T15:52:02.592Z,11.75
2023-04-13T15:54:31.998Z,16.60
2023-04-13T15:57:03.352Z,16.48
2023-04-13T15:59:34.941Z,14.77
2023-04-13T16:02:04.488Z,11.90
2023-04-13T16:04:33.845Z,8.85
2023-04-13T16:07:12.788Z,13.88
2023-04-13T16:09:45.590Z,14.27
2023-04-13T16:12:17.874Z,11.68
2023-04-13T16:14:46.866Z,16.15
2023-04-13T16:17:16.573Z,14.02
2023-04-13T16:19:49.101Z,10.98
2023-04-13T16:22:18.472Z,13.27
2023-04-13T16:24:48.485Z,13.10
2023-04-13T16:27:19.929Z,21.05
2023-04-13T16:29:50.338Z,19.08
2023-04-13T16:32:19.945Z,17.10
2023-04-13T16:34:50.722Z,15.05
2023-04-13T16:37:19.674Z,14.10
2023-04-13T16:39:48.939Z,14.57
2023-04-13T16:42:19.870Z,15.98
2023-04-13T16:44:49.668Z,13.27
2023-04-13T16:47:22.138Z,17.02
2023-04-13T16:49:51.344Z,19.60
2023-04-13T16:52:20.978Z,14.88
2023-04-13T16:54:50.357Z,19.30
2023-04-13T16:57:21.271Z,10.50
2023-04-13T16:59:53.587Z,19.83
2023-04-13T17:02:31.142Z,16.58
2023-04-13T17:05:01.163Z,19.17
2023-04-13T17:07:31.776Z,16.50
2023-04-13T17:10:01.034Z,19.90
2023-04-13T17:12:32.056Z,11.73
2023-04-13T17:15:02.120Z,21.88
2023-04-13T17:17:31.691Z,22.98
2023-04-13T17:20:01.011Z,17.70
2023-04-13T17:22:30.252Z,17.52
2023-04-13T17:25:00.116Z,14.25
2023-04-13T17:27:32.198Z,14.75
2023-04-13T17:30:01.884Z,19.42
2023-04-13T17:32:31.456Z,12.25
2023-04-13T17:35:01.309Z,16.52
2023-04-13T17:37:33.697Z,15.23
2023-04-13T17:40:05.432Z,25.48
2023-04-13T17:42:36.042Z,16.80
2023-04-13T17:45:07.399Z,15.52
2023-04-13T17:47:37.211Z,16.77
2023-04-13T17:50:07.016Z,20.05
2023-04-13T17:52:36.436Z,17.38
2023-04-13T17:55:06.670Z,16.08
2023-04-13T17:57:36.456Z,17.13
2023-04-13T18:00:08.866Z,46.35
2023-04-13T18:02:39.536Z,32.65
2023-04-13T18:05:15.479Z,21.02
2023-04-13T18:07:45.549Z,23.00
2023-04-13T18:10:15.468Z,15.00
2023-04-13T18:12:46.136Z,16.48
2023-04-13T18:15:16.973Z,12.55
2023-04-13T18:17:46.567Z,10.32
2023-04-13T18:20:17.669Z,11.82
2023-04-13T18:22:48.955Z,7.30
2023-04-13T18:25:18.931Z,12.75
2023-04-13T18:27:50.233Z,20.75
2023-04-13T18:30:21.160Z,19.85
2023-04-13T18:32:52.033Z,13.65
2023-04-13T18:35:21.600Z,27.23
2023-04-13T18:37:51.795Z,18.67
2023-04-13T18:40:23.652Z,16.23
2023-04-13T18:42:52.964Z,27.02
2023-04-13T18:45:23.799Z,30.58
2023-04-13T18:47:53.186Z,30.10
2023-04-13T18:50:22.495Z,22.52
2023-04-13T18:52:51.844Z,25.05
2023-04-13T18:55:21.652Z,15.90
2023-04-13T18:57:52.947Z,25.40
2023-04-13T19:00:24.263Z,18.30
2023-04-13T19:02:54.158Z,24.52
2023-04-13T19:05:23.314Z,19.67
2023-04-13T19:07:57.321Z,25.77
2023-04-13T19:10:26.528Z,36.45
2023-04-13T19:12:56.449Z,34.95
2023-04-13T19:15:27.478Z,26.35
2023-04-13T19:17:57.315Z,31.25
2023-04-13T19:20:26.829Z,35.60
2023-04-13T19:22:55.892Z,37.22
2023-04-13T19:25:25.594Z,43.83
2023-04-13T19:27:55.119Z,45.25
2023-04-13T19:30:24.321Z,32.20
2023-04-13T19:32:55.183Z,42.85
2023-04-13T19:35:26.128Z,36.25
2023-04-13T19:37:56.061Z,44.83
2023-04-13T19:40:27.598Z,19.75
2023-04-13T19:42:59.982Z,25.05
2023-04-13T19:45:31.298Z,19.92
2023-04-13T19:48:03.746Z,25.73
2023-04-13T19:50:33.508Z,29.77
2023-04-13T19:53:02.894Z,21.80
2023-04-13T19:55:32.626Z,26.30
2023-04-13T19:58:03.840Z,28.92
2023-04-13T20:00:33.278Z,26.25
2023-04-13T20:03:17.982Z,30.90
2023-04-13T20:05:50.771Z,40.95
2023-04-13T20:08:21.297Z,43.20
2023-04-13T20:10:50.444Z,44.00
2023-04-13T20:13:19.695Z,33.75
2023-04-13T20:15:48.752Z,38.05
2023-04-13T20:18:20.833Z,38.03
2023-04-13T20:20:51.405Z,41.35
2023-04-13T20:23:20.769Z,40.58
2023-04-13T20:25:50.594Z,44.08
2023-04-13T20:28:21.480Z,27.05
2023-04-13T20:30:51.158Z,31.30
2023-04-13T20:33:20.421Z,39.72
2023-04-13T20:35:50.778Z,32.63
2023-04-13T20:38:20.261Z,33.92
2023-04-13T20:40:50.180Z,31.83
2023-04-13T20:43:20.615Z,32.80
2023-04-13T20:45:50.435Z,17.10
2023-04-13T20:50:53.975Z,32.88
2023-04-13T20:53:23.931Z,27.10
2023-04-13T20:55:53.687Z,18.70
2023-04-13T20:58:23.059Z,23.15
2023-04-13T21:00:53.261Z,17.90
2023-04-13T21:03:24.507Z,21.15
2023-04-13T21:05:55.284Z,17.13
2023-04-13T21:08:26.902Z,20.83
2023-04-13T21:11:03.141Z,21.55
2023-04-13T21:13:33.159Z,22.83
2023-04-13T21:16:02.757Z,17.35
2023-04-13T21:18:32.263Z,20.15
2023-04-13T21:21:03.452Z,25.55
2023-04-13T21:23:33.379Z,23.35
2023-04-13T21:26:03.109Z,16.20
2023-04-13T21:28:32.344Z,22.98
2023-04-13T21:31:01.879Z,24.10
2023-04-13T21:33:31.777Z,23.85
2023-04-13T21:38:36.040Z,19.98
2023-04-13T21:41:06.632Z,16.65
2023-04-13T21:43:36.718Z,17.35
2023-04-13T21:46:08.864Z,11.13
2023-04-13T21:48:38.580Z,14.68
2023-04-13T21:51:08.592Z,17.15
2023-04-13T21:53:42.706Z,18.90
2023-04-13T21:56:11.910Z,12.30
2023-04-13T21:58:41.637Z,15.00
2023-04-13T22:01:11.849Z,17.95
2023-04-13T22:03:43.530Z,15.30
2023-04-13T22:06:13.828Z,19.25
2023-04-13T22:08:45.360Z,15.52
2023-04-13T22:11:16.877Z,21.00
2023-04-13T22:13:47.762Z,16.17
2023-04-13T22:16:17.115Z,16.90
2023-04-13T22:18:46.539Z,19.38
2023-04-13T22:21:16.998Z,20.67
2023-04-13T22:23:47.857Z,18.35
2023-04-13T22:26:16.907Z,15.88
2023-04-13T22:28:46.992Z,17.70
2023-04-13T22:31:16.780Z,21.30
2023-04-13T22:33:46.926Z,18.88
2023-04-13T22:36:19.853Z,14.70
2023-04-13T22:38:51.837Z,17.30
2023-04-13T22:43:49.719Z,20.50
2023-04-13T22:46:18.795Z,19.15
2023-04-13T22:48:48.203Z,15.88
2023-04-13T22:51:17.479Z,22.25
2023-04-13T22:53:46.622Z,54.30
2023-04-13T22:56:17.187Z,18.42
2023-04-13T22:58:47.019Z,21.60
2023-04-13T23:01:16.207Z,27.23
2023-04-13T23:03:45.789Z,21.15
2023-04-13T23:06:14.927Z,15.45
2023-04-13T23:08:43.998Z,21.88
2023-04-13T23:11:12.930Z,20.98
2023-04-13T23:13:43.306Z,23.98
2023-04-13T23:16:13.084Z,26.95
2023-04-13T23:18:42.971Z,23.38
2023-04-13T23:21:12.936Z,25.48
2023-04-13T23:23:41.991Z,23.17
2023-04-13T23:26:11.519Z,24.92
2023-04-13T23:28:41.455Z,26.98
2023-04-13T23:31:12.190Z,25.50
2023-04-13T23:33:42.683Z,26.60
2023-04-13T23:36:12.223Z,31.52
2023-04-13T23:38:41.978Z,30.02
2023-04-13T23:41:11.281Z,32.88
2023-04-13T23:43:40.571Z,27.33
2023-04-13T23:46:10.131Z,26.30
2023-04-13T23:48:45.135Z,20.73
2023-04-13T23:51:15.947Z,25.85
2023-04-13T23:53:48.966Z,15.35
2023-04-13T23:56:18.502Z,24.40
2023-04-13T23:58:47.907Z,26.85
